sensor_id;sensor_type;location;lat;lon;timestamp;pressure;altitude;pressure_sealevel;temperature;humidity
83631;BME280;73593;52.134;5.426;2024-03-02T00:00:50;99864.94;;;7.35;73.38
83631;BME280;73593;52.134;5.426;2024-03-02T00:03:20;99857.03;;;7.35;73.17
83631;BME280;73593;52.134;5.426;2024-03-02T00:05:50;99859.28;;;7.40;73.29
83631;BME280;73593;52.134;5.426;2024-03-02T00:08:27;99860.81;;;7.42;73.19
83631;BME280;73593;52.134;5.426;2024-03-02T00:11:00;99850.44;;;7.41;73.50
83631;BME280;73593;52.134;5.426;2024-03-02T00:13:29;99856.53;;;7.41;73.21
83631;BME280;73593;52.134;5.426;2024-03-02T00:16:00;99868.84;;;7.41;73.29
83631;BME280;73593;52.134;5.426;2024-03-02T00:18:31;99875.69;;;7.43;73.38
83631;BME280;73593;52.134;5.426;2024-03-02T00:20:59;99875.56;;;7.45;73.18
83631;BME280;73593;52.134;5.426;2024-03-02T00:23:29;99884.97;;;7.47;73.33
83631;BME280;73593;52.134;5.426;2024-03-02T00:25:56;99893.47;;;7.51;72.81
83631;BME280;73593;52.134;5.426;2024-03-02T00:28:24;99907.34;;;7.53;72.92
83631;BME280;73593;52.134;5.426;2024-03-02T00:31:05;99901.38;;;7.51;73.32
83631;BME280;73593;52.134;5.426;2024-03-02T00:33:35;99907.34;;;7.53;73.34
83631;BME280;73593;52.134;5.426;2024-03-02T00:36:03;99923.97;;;7.53;73.08
83631;BME280;73593;52.134;5.426;2024-03-02T00:38:42;99939.69;;;7.55;73.55
83631;BME280;73593;52.134;5.426;2024-03-02T00:41:19;99934.50;;;7.53;73.31
83631;BME280;73593;52.134;5.426;2024-03-02T00:44:04;99957.53;;;7.51;73.67
83631;BME280;73593;52.134;5.426;2024-03-02T00:46:39;99971.78;;;7.49;74.16
83631;BME280;73593;52.134;5.426;2024-03-02T00:49:21;99969.38;;;7.46;74.55
83631;BME280;73593;52.134;5.426;2024-03-02T00:51:52;99959.94;;;7.43;74.53
83631;BME280;73593;52.134;5.426;2024-03-02T00:54:21;99959.34;;;7.40;74.92
83631;BME280;73593;52.134;5.426;2024-03-02T00:56:50;99962.25;;;7.37;75.11
83631;BME280;73593;52.134;5.426;2024-03-02T00:59:17;99972.19;;;7.33;75.47
83631;BME280;73593;52.134;5.426;2024-03-02T01:01:49;99974.34;;;7.28;76.20
83631;BME280;73593;52.134;5.426;2024-03-02T01:04:16;99980.94;;;7.22;77.04
83631;BME280;73593;52.134;5.426;2024-03-02T01:06:42;99978.66;;;7.18;76.98
83631;BME280;73593;52.134;5.426;2024-03-02T01:09:10;99980.84;;;7.13;77.43
83631;BME280;73593;52.134;5.426;2024-03-02T01:11:39;99978.59;;;7.08;77.50
83631;BME280;73593;52.134;5.426;2024-03-02T01:14:06;99979.78;;;7.04;77.99
83631;BME280;73593;52.134;5.426;2024-03-02T01:16:32;99990.56;;;7.01;78.21
83631;BME280;73593;52.134;5.426;2024-03-02T01:18:59;99983.03;;;6.96;78.55
83631;BME280;73593;52.134;5.426;2024-03-02T01:21:29;99975.63;;;6.90;79.48
83631;BME280;73593;52.134;5.426;2024-03-02T01:23:55;99975.97;;;6.86;79.56
83631;BME280;73593;52.134;5.426;2024-03-02T01:26:22;99986.16;;;6.79;79.99
83631;BME280;73593;52.134;5.426;2024-03-02T01:28:51;99992.72;;;6.73;79.99
83631;BME280;73593;52.134;5.426;2024-03-02T01:31:20;99992.16;;;6.70;80.05
83631;BME280;73593;52.134;5.426;2024-03-02T01:33:52;99988.91;;;6.66;80.48
83631;BME280;73593;52.134;5.426;2024-03-02T01:36:21;99991.06;;;6.61;80.71
83631;BME280;73593;52.134;5.426;2024-03-02T01:38:48;99981.63;;;6.59;80.76
83631;BME280;73593;52.134;5.426;2024-03-02T01:41:15;99992.34;;;6.56;81.47
83631;BME280;73593;52.134;5.426;2024-03-02T01:43:44;99989.84;;;6.54;81.10
83631;BME280;73593;52.134;5.426;2024-03-02T01:46:11;99994.41;;;6.52;81.13
83631;BME280;73593;52.134;5.426;2024-03-02T01:48:43;99997.25;;;6.49;81.54
83631;BME280;73593;52.134;5.426;2024-03-02T01:51:12;99997.50;;;6.46;81.41
83631;BME280;73593;52.134;5.426;2024-03-02T01:53:39;99993.22;;;6.45;81.81
83631;BME280;73593;52.134;5.426;2024-03-02T01:56:06;100004.78;;;6.42;81.60
83631;BME280;73593;52.134;5.426;2024-03-02T01:58:33;99992.72;;;6.40;82.12
83631;BME280;73593;52.134;5.426;2024-03-02T02:01:02;99993.69;;;6.39;81.77
83631;BME280;73593;52.134;5.426;2024-03-02T02:03:34;99991.16;;;6.37;82.56
83631;BME280;73593;52.134;5.426;2024-03-02T02:06:04;99995.69;;;6.35;82.67
83631;BME280;73593;52.134;5.426;2024-03-02T02:08:30;99988.91;;;6.33;82.43
83631;BME280;73593;52.134;5.426;2024-03-02T02:10:57;99993.41;;;6.31;82.45
83631;BME280;73593;52.134;5.426;2024-03-02T02:13:24;100003.22;;;6.29;82.54
83631;BME280;73593;52.134;5.426;2024-03-02T02:15:51;100008.59;;;6.27;82.91
83631;BME280;73593;52.134;5.426;2024-03-02T02:18:19;100003.44;;;6.26;83.04
83631;BME280;73593;52.134;5.426;2024-03-02T02:20:46;100003.44;;;6.26;83.33
83631;BME280;73593;52.134;5.426;2024-03-02T02:23:13;100008.94;;;6.23;83.06
83631;BME280;73593;52.134;5.426;2024-03-02T02:25:42;100003.81;;;6.21;83.74
83631;BME280;73593;52.134;5.426;2024-03-02T02:28:09;100002.22;;;6.18;83.69
83631;BME280;73593;52.134;5.426;2024-03-02T02:30:36;99995.56;;;6.14;84.15
83631;BME280;73593;52.134;5.426;2024-03-02T02:33:05;99991.34;;;6.12;84.37
83631;BME280;73593;52.134;5.426;2024-03-02T02:35:34;99990.75;;;6.08;84.89
83631;BME280;73593;52.134;5.426;2024-03-02T02:38:05;99989.19;;;6.06;85.01
83631;BME280;73593;52.134;5.426;2024-03-02T02:40:32;100003.41;;;6.03;85.20
83631;BME280;73593;52.134;5.426;2024-03-02T02:43:01;100014.03;;;6.02;85.26
83631;BME280;73593;52.134;5.426;2024-03-02T02:45:31;100010.66;;;6.00;85.54
83631;BME280;73593;52.134;5.426;2024-03-02T02:47:57;100009.00;;;5.99;85.45
83631;BME280;73593;52.134;5.426;2024-03-02T02:50:32;100008.28;;;5.97;85.71
83631;BME280;73593;52.134;5.426;2024-03-02T02:53:01;100004.91;;;5.95;85.48
83631;BME280;73593;52.134;5.426;2024-03-02T02:55:30;100005.03;;;5.93;85.67
83631;BME280;73593;52.134;5.426;2024-03-02T02:57:59;100004.31;;;5.91;85.64
83631;BME280;73593;52.134;5.426;2024-03-02T03:00:26;100020.16;;;5.89;85.87
83631;BME280;73593;52.134;5.426;2024-03-02T03:02:53;100015.00;;;5.88;85.81
83631;BME280;73593;52.134;5.426;2024-03-02T03:05:22;100015.25;;;5.85;85.51
83631;BME280;73593;52.134;5.426;2024-03-02T03:07:51;100022.28;;;5.84;85.79
83631;BME280;73593;52.134;5.426;2024-03-02T03:10:20;100004.97;;;5.82;86.05
83631;BME280;73593;52.134;5.426;2024-03-02T03:12:49;100014.75;;;5.80;85.51
83631;BME280;73593;52.134;5.426;2024-03-02T03:15:16;100005.31;;;5.77;85.80
83631;BME280;73593;52.134;5.426;2024-03-02T03:17:46;100009.81;;;5.75;86.22
83631;BME280;73593;52.134;5.426;2024-03-02T03:20:14;100016.16;;;5.73;86.15
83631;BME280;73593;52.134;5.426;2024-03-02T03:22:42;100003.03;;;5.73;85.59
83631;BME280;73593;52.134;5.426;2024-03-02T03:25:11;100019.94;;;5.69;86.23
83631;BME280;73593;52.134;5.426;2024-03-02T03:27:38;100016.81;;;5.63;85.93
83631;BME280;73593;52.134;5.426;2024-03-02T03:30:05;100016.94;;;5.62;86.30
83631;BME280;73593;52.134;5.426;2024-03-02T03:32:33;100021.56;;;5.58;85.77
83631;BME280;73593;52.134;5.426;2024-03-02T03:35:00;100034.94;;;5.55;85.77
83631;BME280;73593;52.134;5.426;2024-03-02T03:37:29;100029.88;;;5.52;85.76
83631;BME280;73593;52.134;5.426;2024-03-02T03:40:03;100016.28;;;5.47;85.39
83631;BME280;73593;52.134;5.426;2024-03-02T03:42:39;100033.06;;;5.45;85.70
83631;BME280;73593;52.134;5.426;2024-03-02T03:45:06;100023.53;;;5.44;85.75
83631;BME280;73593;52.134;5.426;2024-03-02T03:47:35;100027.00;;;5.44;85.59
83631;BME280;73593;52.134;5.426;2024-03-02T03:50:05;100030.44;;;5.45;85.50
83631;BME280;73593;52.134;5.426;2024-03-02T03:52:34;100036.44;;;5.47;85.73
83631;BME280;73593;52.134;5.426;2024-03-02T03:55:00;100041.69;;;5.47;85.88
83631;BME280;73593;52.134;5.426;2024-03-02T03:57:27;100045.03;;;5.49;85.68
83631;BME280;73593;52.134;5.426;2024-03-02T03:59:54;100030.84;;;5.51;85.73
83631;BME280;73593;52.134;5.426;2024-03-02T04:02:23;100027.25;;;5.52;85.79
83631;BME280;73593;52.134;5.426;2024-03-02T04:04:53;100030.75;;;5.53;85.91
83631;BME280;73593;52.134;5.426;2024-03-02T04:07:23;100037.56;;;5.55;85.55
83631;BME280;73593;52.134;5.426;2024-03-02T04:09:49;100040.91;;;5.57;85.92
83631;BME280;73593;52.134;5.426;2024-03-02T04:12:16;100037.31;;;5.58;85.51
83631;BME280;73593;52.134;5.426;2024-03-02T04:14:45;100044.25;;;5.59;85.77
83631;BME280;73593;52.134;5.426;2024-03-02T04:17:12;100047.72;;;5.60;85.70
83631;BME280;73593;52.134;5.426;2024-03-02T04:19:43;100061.69;;;5.60;85.54
83631;BME280;73593;52.134;5.426;2024-03-02T04:22:13;100056.31;;;5.62;85.62
83631;BME280;73593;52.134;5.426;2024-03-02T04:24:50;100053.69;;;5.62;85.72
83631;BME280;73593;52.134;5.426;2024-03-02T04:27:19;100046.66;;;5.62;85.21
83631;BME280;73593;52.134;5.426;2024-03-02T04:29:46;100044.03;;;5.62;85.72
83631;BME280;73593;52.134;5.426;2024-03-02T04:32:17;100052.63;;;5.64;85.07
83631;BME280;73593;52.134;5.426;2024-03-02T04:34:46;100051.69;;;5.65;85.25
83631;BME280;73593;52.134;5.426;2024-03-02T04:37:12;100057.78;;;5.66;85.02
83631;BME280;73593;52.134;5.426;2024-03-02T04:39:40;100060.41;;;5.66;85.10
83631;BME280;73593;52.134;5.426;2024-03-02T04:42:07;100063.03;;;5.66;85.22
83631;BME280;73593;52.134;5.426;2024-03-02T04:44:34;100067.34;;;5.67;84.82
83631;BME280;73593;52.134;5.426;2024-03-02T04:47:01;100070.78;;;5.68;85.00
83631;BME280;73593;52.134;5.426;2024-03-02T04:49:28;100065.66;;;5.66;85.20
83631;BME280;73593;52.134;5.426;2024-03-02T04:51:54;100074.38;;;5.66;85.01
83631;BME280;73593;52.134;5.426;2024-03-02T04:54:24;100076.88;;;5.68;85.23
83631;BME280;73593;52.134;5.426;2024-03-02T04:56:51;100083.09;;;5.67;85.10
83631;BME280;73593;52.134;5.426;2024-03-02T04:59:18;100086.56;;;5.68;84.78
83631;BME280;73593;52.134;5.426;2024-03-02T05:01:45;100086.66;;;5.66;85.02
83631;BME280;73593;52.134;5.426;2024-03-02T05:04:13;100084.88;;;5.66;84.79
83631;BME280;73593;52.134;5.426;2024-03-02T05:06:40;100080.59;;;5.65;84.65
83631;BME280;73593;52.134;5.426;2024-03-02T05:09:09;100087.63;;;5.65;84.87
83631;BME280;73593;52.134;5.426;2024-03-02T05:11:36;100080.59;;;5.65;84.47
83631;BME280;73593;52.134;5.426;2024-03-02T05:14:06;100089.38;;;5.64;84.13
83631;BME280;73593;52.134;5.426;2024-03-02T05:16:36;100100.75;;;5.65;84.56
83631;BME280;73593;52.134;5.426;2024-03-02T05:19:09;100099.88;;;5.64;84.45
83631;BME280;73593;52.134;5.426;2024-03-02T05:21:38;100092.88;;;5.65;84.37
83631;BME280;73593;52.134;5.426;2024-03-02T05:24:07;100098.13;;;5.65;83.73
83631;BME280;73593;52.134;5.426;2024-03-02T05:26:33;100094.63;;;5.64;83.87
83631;BME280;73593;52.134;5.426;2024-03-02T05:29:00;100095.59;;;5.63;83.75
83631;BME280;73593;52.134;5.426;2024-03-02T05:31:27;100096.41;;;5.64;83.60
83631;BME280;73593;52.134;5.426;2024-03-02T05:33:54;100094.75;;;5.63;83.34
83631;BME280;73593;52.134;5.426;2024-03-02T05:36:23;100103.38;;;5.65;83.55
83631;BME280;73593;52.134;5.426;2024-03-02T05:38:53;100097.38;;;5.63;82.85
83631;BME280;73593;52.134;5.426;2024-03-02T05:41:22;100094.75;;;5.63;83.01
83631;BME280;73593;52.134;5.426;2024-03-02T05:43:48;100088.91;;;5.59;82.73
83631;BME280;73593;52.134;5.426;2024-03-02T05:46:16;100092.06;;;5.52;82.59
83631;BME280;73593;52.134;5.426;2024-03-02T05:48:42;100094.63;;;5.41;82.62
83631;BME280;73593;52.134;5.426;2024-03-02T05:51:09;100098.84;;;5.30;82.54
83631;BME280;73593;52.134;5.426;2024-03-02T05:53:36;100095.09;;;5.22;82.47
83631;BME280;73593;52.134;5.426;2024-03-02T05:56:05;100099.59;;;5.20;82.67
83631;BME280;73593;52.134;5.426;2024-03-02T05:58:32;100098.63;;;5.21;82.67
83631;BME280;73593;52.134;5.426;2024-03-02T06:01:12;100106.09;;;5.27;82.08
83631;BME280;73593;52.134;5.426;2024-03-02T06:03:39;100107.03;;;5.26;82.03
83631;BME280;73593;52.134;5.426;2024-03-02T06:06:06;100111.25;;;5.28;82.13
83631;BME280;73593;52.134;5.426;2024-03-02T06:08:35;100115.63;;;5.28;81.97
83631;BME280;73593;52.134;5.426;2024-03-02T06:11:04;100112.16;;;5.27;82.18
83631;BME280;73593;52.134;5.426;2024-03-02T06:13:31;100112.16;;;5.27;82.04
83631;BME280;73593;52.134;5.426;2024-03-02T06:15:58;100118.47;;;5.25;82.17
83631;BME280;73593;52.134;5.426;2024-03-02T06:18:27;100133.38;;;5.24;81.91
83631;BME280;73593;52.134;5.426;2024-03-02T06:20:54;100124.56;;;5.25;82.57
83631;BME280;73593;52.134;5.426;2024-03-02T06:23:20;100124.44;;;5.27;82.68
83631;BME280;73593;52.134;5.426;2024-03-02T06:25:47;100133.16;;;5.27;83.13
83631;BME280;73593;52.134;5.426;2024-03-02T06:28:16;100132.44;;;5.25;82.85
83631;BME280;73593;52.134;5.426;2024-03-02T06:30:43;100140.31;;;5.25;82.77
83631;BME280;73593;52.134;5.426;2024-03-02T06:33:10;100145.56;;;5.25;82.75
83631;BME280;73593;52.134;5.426;2024-03-02T06:35:37;100145.44;;;5.27;83.04
83631;BME280;73593;52.134;5.426;2024-03-02T06:38:04;100149.75;;;5.28;82.93
83631;BME280;73593;52.134;5.426;2024-03-02T06:40:31;100148.72;;;5.30;82.88
83631;BME280;73593;52.134;5.426;2024-03-02T06:42:58;100152.88;;;5.33;82.74
83631;BME280;73593;52.134;5.426;2024-03-02T06:45:24;100158.97;;;5.33;82.63
83631;BME280;73593;52.134;5.426;2024-03-02T06:47:53;100156.34;;;5.33;83.05
83631;BME280;73593;52.134;5.426;2024-03-02T06:50:22;100152.69;;;5.36;83.32
83631;BME280;73593;52.134;5.426;2024-03-02T06:52:49;100150.66;;;5.39;82.94
83631;BME280;73593;52.134;5.426;2024-03-02T06:55:18;100150.59;;;5.41;83.04
83631;BME280;73593;52.134;5.426;2024-03-02T06:57:47;100151.44;;;5.42;83.04
83631;BME280;73593;52.134;5.426;2024-03-02T07:00:16;100150.47;;;5.43;82.67
83631;BME280;73593;52.134;5.426;2024-03-02T07:02:44;100145.41;;;5.39;82.59
83631;BME280;73593;52.134;5.426;2024-03-02T07:05:12;100152.47;;;5.39;82.81
83631;BME280;73593;52.134;5.426;2024-03-02T07:07:38;100149.84;;;5.39;82.63
83631;BME280;73593;52.134;5.426;2024-03-02T07:10:06;100148.03;;;5.39;82.64
83631;BME280;73593;52.134;5.426;2024-03-02T07:12:35;100147.84;;;5.43;82.65
83631;BME280;73593;52.134;5.426;2024-03-02T07:15:02;100158.22;;;5.44;82.70
83631;BME280;73593;52.134;5.426;2024-03-02T07:17:32;100143.13;;;5.48;82.83
83631;BME280;73593;52.134;5.426;2024-03-02T07:20:01;100153.19;;;5.54;82.30
83631;BME280;73593;52.134;5.426;2024-03-02T07:22:28;100148.44;;;5.59;82.28
83631;BME280;73593;52.134;5.426;2024-03-02T07:24:54;100148.03;;;5.65;81.77
83631;BME280;73593;52.134;5.426;2024-03-02T07:27:21;100154.50;;;5.72;81.90
83631;BME280;73593;52.134;5.426;2024-03-02T07:29:48;100159.31;;;5.78;81.74
83631;BME280;73593;52.134;5.426;2024-03-02T07:32:15;100164.97;;;5.85;81.82
83631;BME280;73593;52.134;5.426;2024-03-02T07:34:42;100162.75;;;5.91;81.46
83631;BME280;73593;52.134;5.426;2024-03-02T07:37:08;100171.03;;;5.98;81.59
83631;BME280;73593;52.134;5.426;2024-03-02T07:39:39;100177.53;;;6.05;81.27
83631;BME280;73593;52.134;5.426;2024-03-02T07:42:06;100177.09;;;6.11;80.98
83631;BME280;73593;52.134;5.426;2024-03-02T07:44:33;100176.75;;;6.16;81.16
83631;BME280;73593;52.134;5.426;2024-03-02T07:47:01;100175.47;;;6.22;81.06
83631;BME280;73593;52.134;5.426;2024-03-02T07:49:28;100171.66;;;6.26;80.85
83631;BME280;73593;52.134;5.426;2024-03-02T07:51:57;100184.06;;;6.24;80.72
83631;BME280;73593;52.134;5.426;2024-03-02T07:54:25;100186.69;;;6.24;80.51
83631;BME280;73593;52.134;5.426;2024-03-02T07:56:51;100186.94;;;6.21;80.55
83631;BME280;73593;52.134;5.426;2024-03-02T07:59:18;100183.34;;;6.22;80.36
83631;BME280;73593;52.134;5.426;2024-03-02T08:01:46;100187.53;;;6.24;80.39
83631;BME280;73593;52.134;5.426;2024-03-02T08:04:17;100193.88;;;6.22;80.64
83631;BME280;73593;52.134;5.426;2024-03-02T08:06:45;100194.06;;;6.18;80.64
83631;BME280;73593;52.134;5.426;2024-03-02T08:09:14;100202.06;;;6.17;80.66
83631;BME280;73593;52.134;5.426;2024-03-02T08:11:46;100200.41;;;6.16;80.25
83631;BME280;73593;52.134;5.426;2024-03-02T08:14:12;100200.53;;;6.14;80.26
83631;BME280;73593;52.134;5.426;2024-03-02T08:16:42;100198.94;;;6.12;80.70
83631;BME280;73593;52.134;5.426;2024-03-02T08:19:09;100205.16;;;6.11;80.14
83631;BME280;73593;52.134;5.426;2024-03-02T08:21:36;100199.91;;;6.11;80.39
83631;BME280;73593;52.134;5.426;2024-03-02T08:24:06;100198.94;;;6.12;79.94
83631;BME280;73593;52.134;5.426;2024-03-02T08:26:33;100208.41;;;6.14;79.99
83631;BME280;73593;52.134;5.426;2024-03-02T08:29:00;100200.91;;;6.21;80.41
83631;BME280;73593;52.134;5.426;2024-03-02T08:31:30;100199.28;;;6.31;80.10
83631;BME280;73593;52.134;5.426;2024-03-02T08:33:59;100201.00;;;6.43;79.60
83631;BME280;73593;52.134;5.426;2024-03-02T08:36:27;100198.31;;;6.56;79.13
83631;BME280;73593;52.134;5.426;2024-03-02T08:38:54;100199.31;;;6.66;78.88
83631;BME280;73593;52.134;5.426;2024-03-02T08:41:20;100193.38;;;6.76;79.08
83631;BME280;73593;52.134;5.426;2024-03-02T08:43:49;100204.88;;;6.86;78.23
83631;BME280;73593;52.134;5.426;2024-03-02T08:46:21;100205.59;;;6.88;78.23
83631;BME280;73593;52.134;5.426;2024-03-02T08:48:50;100206.91;;;6.93;77.62
83631;BME280;73593;52.134;5.426;2024-03-02T08:51:19;100204.69;;;7.00;77.67
83631;BME280;73593;52.134;5.426;2024-03-02T08:53:48;100207.78;;;7.05;77.53
83631;BME280;73593;52.134;5.426;2024-03-02T08:56:19;100201.00;;;7.14;77.81
83631;BME280;73593;52.134;5.426;2024-03-02T08:58:48;100196.09;;;7.20;77.54
83631;BME280;73593;52.134;5.426;2024-03-02T09:01:15;100199.22;;;7.25;77.40
83631;BME280;73593;52.134;5.426;2024-03-02T09:03:43;100206.63;;;7.32;77.39
83631;BME280;73593;52.134;5.426;2024-03-02T09:06:12;100208.78;;;7.38;77.19
83631;BME280;73593;52.134;5.426;2024-03-02T09:08:39;100202.22;;;7.43;77.26
83631;BME280;73593;52.134;5.426;2024-03-02T09:18:13;100192.88;;;7.62;75.33
83631;BME280;73593;52.134;5.426;2024-03-02T09:20:40;100195.88;;;7.68;75.51
83631;BME280;73593;52.134;5.426;2024-03-02T09:23:07;100197.06;;;7.75;75.02
83631;BME280;73593;52.134;5.426;2024-03-02T09:25:36;100200.16;;;7.80;74.66
83631;BME280;73593;52.134;5.426;2024-03-02T09:28:06;100204.94;;;7.87;74.17
83631;BME280;73593;52.134;5.426;2024-03-02T09:30:33;100197.38;;;7.93;73.92
83631;BME280;73593;52.134;5.426;2024-03-02T09:33:00;100202.16;;;7.99;72.87
83631;BME280;73593;52.134;5.426;2024-03-02T09:35:30;100207.78;;;8.06;72.51
83631;BME280;73593;52.134;5.426;2024-03-02T09:38:02;100209.78;;;8.14;72.12
83631;BME280;73593;52.134;5.426;2024-03-02T09:40:32;100208.34;;;8.21;71.72
83631;BME280;73593;52.134;5.426;2024-03-02T09:42:59;100212.41;;;8.25;71.47
83631;BME280;73593;52.134;5.426;2024-03-02T09:45:27;100221.63;;;8.30;71.00
83631;BME280;73593;52.134;5.426;2024-03-02T09:47:54;100219.56;;;8.34;71.21
83631;BME280;73593;52.134;5.426;2024-03-02T09:50:21;100222.47;;;8.42;70.65
83631;BME280;73593;52.134;5.426;2024-03-02T09:52:52;100221.34;;;8.45;70.57
83631;BME280;73593;52.134;5.426;2024-03-02T09:55:19;100212.94;;;8.51;70.32
83631;BME280;73593;52.134;5.426;2024-03-02T09:57:48;100216.06;;;8.56;69.15
83631;BME280;73593;52.134;5.426;2024-03-02T10:00:16;100210.13;;;8.64;69.44
83631;BME280;73593;52.134;5.426;2024-03-02T10:02:43;100213.09;;;8.70;69.08
83631;BME280;73593;52.134;5.426;2024-03-02T10:05:10;100226.88;;;8.74;68.65
83631;BME280;73593;52.134;5.426;2024-03-02T10:07:38;100222.06;;;8.79;68.93
83631;BME280;73593;52.134;5.426;2024-03-02T10:10:14;100210.28;;;8.83;68.20
83631;BME280;73593;52.134;5.426;2024-03-02T10:12:41;100210.50;;;8.91;68.76
83631;BME280;73593;52.134;5.426;2024-03-02T10:15:08;100206.09;;;9.01;68.09
83631;BME280;73593;52.134;5.426;2024-03-02T10:17:36;100210.75;;;9.09;67.25
83631;BME280;73593;52.134;5.426;2024-03-02T10:20:21;100209.91;;;9.08;66.85
83631;BME280;73593;52.134;5.426;2024-03-02T10:22:53;100205.56;;;9.07;66.43
83631;BME280;73593;52.134;5.426;2024-03-02T10:25:31;100208.22;;;9.07;65.92
83631;BME280;73593;52.134;5.426;2024-03-02T10:28:03;100210.09;;;9.17;66.53
83631;BME280;73593;52.134;5.426;2024-03-02T10:30:35;100208.97;;;9.19;65.59
83631;BME280;73593;52.134;5.426;2024-03-02T10:33:02;100213.06;;;9.23;65.81
83631;BME280;73593;52.134;5.426;2024-03-02T10:35:29;100206.66;;;9.26;65.98
83631;BME280;73593;52.134;5.426;2024-03-02T10:38:04;100207.38;;;9.28;65.35
83631;BME280;73593;52.134;5.426;2024-03-02T10:40:31;100195.56;;;9.32;65.26
83631;BME280;73593;52.134;5.426;2024-03-02T10:42:59;100193.38;;;9.37;64.91
83631;BME280;73593;52.134;5.426;2024-03-02T10:45:31;100189.94;;;9.46;65.46
83631;BME280;73593;52.134;5.426;2024-03-02T10:48:02;100191.53;;;9.58;65.60
83631;BME280;73593;52.134;5.426;2024-03-02T10:50:34;100184.16;;;9.62;64.80
83631;BME280;73593;52.134;5.426;2024-03-02T10:53:03;100187.09;;;9.59;64.46
83631;BME280;73593;52.134;5.426;2024-03-02T10:55:34;100177.06;;;9.62;64.54
83631;BME280;73593;52.134;5.426;2024-03-02T10:58:04;100170.16;;;9.71;64.71
83631;BME280;73593;52.134;5.426;2024-03-02T11:00:34;100175.00;;;9.76;63.85
83631;BME280;73593;52.134;5.426;2024-03-02T11:03:07;100173.78;;;9.80;63.58
83631;BME280;73593;52.134;5.426;2024-03-02T11:05:44;100174.47;;;9.82;63.28
83631;BME280;73593;52.134;5.426;2024-03-02T11:08:13;100171.44;;;9.86;63.63
83631;BME280;73593;52.134;5.426;2024-03-02T11:13:14;100181.66;;;10.01;63.96
83631;BME280;73593;52.134;5.426;2024-03-02T11:15:44;100176.34;;;10.10;63.54
83631;BME280;73593;52.134;5.426;2024-03-02T11:18:13;100177.19;;;10.01;63.13
83631;BME280;73593;52.134;5.426;2024-03-02T11:20:44;100178.72;;;10.04;62.46
83631;BME280;73593;52.134;5.426;2024-03-02T11:23:13;100173.84;;;10.09;62.29
83631;BME280;73593;52.134;5.426;2024-03-02T11:25:41;100181.66;;;10.10;62.04
83631;BME280;73593;52.134;5.426;2024-03-02T11:28:08;100183.19;;;10.13;61.67
83631;BME280;73593;52.134;5.426;2024-03-02T11:33:06;100179.03;;;10.20;60.02
83631;BME280;73593;52.134;5.426;2024-03-02T11:35:45;100177.38;;;10.29;59.90
83631;BME280;73593;52.134;5.426;2024-03-02T11:38:15;100177.50;;;10.37;60.26
83631;BME280;73593;52.134;5.426;2024-03-02T11:40:44;100164.72;;;10.42;60.12
83631;BME280;73593;52.134;5.426;2024-03-02T11:43:13;100171.13;;;10.39;59.63
83631;BME280;73593;52.134;5.426;2024-03-02T11:45:42;100158.59;;;10.41;60.36
83631;BME280;73593;52.134;5.426;2024-03-02T11:48:14;100160.81;;;10.46;60.23
83631;BME280;73593;52.134;5.426;2024-03-02T11:50:49;100157.88;;;10.59;60.19
83631;BME280;73593;52.134;5.426;2024-03-02T11:53:17;100156.19;;;10.67;60.03
83631;BME280;73593;52.134;5.426;2024-03-02T11:55:45;100154.69;;;10.65;58.87
83631;BME280;73593;52.134;5.426;2024-03-02T11:58:16;100150.38;;;10.64;58.31
83631;BME280;73593;52.134;5.426;2024-03-02T12:00:50;100154.00;;;10.63;58.14
83631;BME280;73593;52.134;5.426;2024-03-02T12:03:23;100147.72;;;10.64;58.46
83631;BME280;73593;52.134;5.426;2024-03-02T12:05:53;100151.06;;;10.66;57.57
83631;BME280;73593;52.134;5.426;2024-03-02T12:08:23;100147.69;;;10.73;57.69
83631;BME280;73593;52.134;5.426;2024-03-02T12:11:00;100141.97;;;10.78;57.05
83631;BME280;73593;52.134;5.426;2024-03-02T12:13:30;100131.13;;;10.81;57.20
83631;BME280;73593;52.134;5.426;2024-03-02T12:15:59;100126.19;;;10.86;57.05
83631;BME280;73593;52.134;5.426;2024-03-02T12:18:26;100129.81;;;10.95;57.14
83631;BME280;73593;52.134;5.426;2024-03-02T12:20:53;100123.28;;;10.99;57.69
83631;BME280;73593;52.134;5.426;2024-03-02T12:23:24;100129.41;;;10.99;57.40
83631;BME280;73593;52.134;5.426;2024-03-02T12:25:52;100125.78;;;11.00;56.65
83631;BME280;73593;52.134;5.426;2024-03-02T12:28:21;100126.03;;;10.97;57.30
83631;BME280;73593;52.134;5.426;2024-03-02T12:30:50;100122.41;;;11.08;56.57
83631;BME280;73593;52.134;5.426;2024-03-02T12:33:19;100116.38;;;11.16;57.22
83631;BME280;73593;52.134;5.426;2024-03-02T12:35:46;100118.03;;;11.17;57.40
83631;BME280;73593;52.134;5.426;2024-03-02T12:38:14;100118.91;;;11.08;57.29
83631;BME280;73593;52.134;5.426;2024-03-02T12:40:41;100117.25;;;11.07;58.43
83631;BME280;73593;52.134;5.426;2024-03-02T12:43:07;100120.31;;;11.02;57.97
83631;BME280;73593;52.134;5.426;2024-03-02T12:45:35;100104.59;;;11.00;57.50
83631;BME280;73593;52.134;5.426;2024-03-02T12:48:07;100104.16;;;11.05;57.16
83631;BME280;73593;52.134;5.426;2024-03-02T12:50:34;100094.25;;;11.07;57.79
83631;BME280;73593;52.134;5.426;2024-03-02T12:53:01;100089.78;;;11.08;58.05
83631;BME280;73593;52.134;5.426;2024-03-02T12:55:30;100088.63;;;11.10;57.45
83631;BME280;73593;52.134;5.426;2024-03-02T12:57:57;100087.13;;;11.08;57.87
83631;BME280;73593;52.134;5.426;2024-03-02T13:00:25;100084.22;;;11.01;57.37
83631;BME280;73593;52.134;5.426;2024-03-02T13:02:56;100085.47;;;11.07;57.58
83631;BME280;73593;52.134;5.426;2024-03-02T13:05:33;100087.97;;;10.98;57.13
83631;BME280;73593;52.134;5.426;2024-03-02T13:08:00;100089.53;;;11.01;58.22
83631;BME280;73593;52.134;5.426;2024-03-02T13:10:29;100086.28;;;11.07;57.57
83631;BME280;73593;52.134;5.426;2024-03-02T13:12:56;100090.19;;;11.13;57.55
83631;BME280;73593;52.134;5.426;2024-03-02T13:15:26;100084.72;;;11.14;57.95
83631;BME280;73593;52.134;5.426;2024-03-02T13:17:53;100086.50;;;11.23;57.99
83631;BME280;73593;52.134;5.426;2024-03-02T13:20:20;100095.66;;;11.29;58.29